sensor_id;sensor_type;location;lat;lon;timestamp;pressure;altitude;pressure_sealevel;temperature;humidity
44765;BME280;30484;52.382;5.260;2023-09-18T00:01:25;100747.72;;;25.72;100.00
44765;BME280;30484;52.382;5.260;2023-09-18T00:03:55;100739.09;;;26.38;100.00
44765;BME280;30484;52.382;5.260;2023-09-18T00:06:25;100734.09;;;26.41;100.00
44765;BME280;30484;52.382;5.260;2023-09-18T00:08:54;100731.94;;;26.37;100.00
44765;BME280;30484;52.382;5.260;2023-09-18T00:11:23;100716.16;;;26.53;100.00
44765;BME280;30484;52.382;5.260;2023-09-18T00:13:51;100712.03;;;26.58;100.00
44765;BME280;30484;52.382;5.260;2023-09-18T00:16:19;100708.50;;;26.49;100.00
44765;BME280;30484;52.382;5.260;2023-09-18T00:18:48;100694.78;;;26.34;100.00
44765;BME280;30484;52.382;5.260;2023-09-18T00:21:17;100690.97;;;26.58;100.00
44765;BME280;30484;52.382;5.260;2023-09-18T00:23:45;100683.94;;;26.41;100.00
44765;BME280;30484;52.382;5.260;2023-09-18T00:26:15;100691.34;;;26.55;100.00
44765;BME280;30484;52.382;5.260;2023-09-18T00:28:44;100677.06;;;26.07;100.00
44765;BME280;30484;52.382;5.260;2023-09-18T00:31:12;100673.25;;;26.08;100.00
44765;BME280;30484;52.382;5.260;2023-09-18T00:33:41;100667.69;;;26.39;100.00
44765;BME280;30484;52.382;5.260;2023-09-18T00:36:09;100662.44;;;26.67;100.00
44765;BME280;30484;52.382;5.260;2023-09-18T00:38:38;100663.97;;;26.85;100.00
44765;BME280;30484;52.382;5.260;2023-09-18T00:41:06;100653.88;;;26.85;100.00
44765;BME280;30484;52.382;5.260;2023-09-18T00:43:36;100655.50;;;26.80;100.00
44765;BME280;30484;52.382;5.260;2023-09-18T00:46:05;100662.63;;;26.51;100.00
44765;BME280;30484;52.382;5.260;2023-09-18T00:48:33;100647.28;;;26.80;100.00
44765;BME280;30484;52.382;5.260;2023-09-18T00:51:05;100638.56;;;26.91;100.00
44765;BME280;30484;52.382;5.260;2023-09-18T00:53:34;100646.47;;;26.56;100.00
44765;BME280;30484;52.382;5.260;2023-09-18T00:56:04;100645.66;;;26.70;100.00
44765;BME280;30484;52.382;5.260;2023-09-18T00:58:33;100640.91;;;26.64;100.00
44765;BME280;30484;52.382;5.260;2023-09-18T01:01:03;100631.81;;;26.49;100.00
44765;BME280;30484;52.382;5.260;2023-09-18T01:03:32;100616.91;;;26.37;100.00
44765;BME280;30484;52.382;5.260;2023-09-18T01:06:00;100598.28;;;26.47;100.00
44765;BME280;30484;52.382;5.260;2023-09-18T01:08:30;100594.00;;;26.29;100.00
44765;BME280;30484;52.382;5.260;2023-09-18T01:11:04;100598.41;;;26.68;100.00
44765;BME280;30484;52.382;5.260;2023-09-18T01:13:40;100583.06;;;26.59;100.00
44765;BME280;30484;52.382;5.260;2023-09-18T01:16:20;100574.34;;;26.11;100.00
44765;BME280;30484;52.382;5.260;2023-09-18T01:18:52;100565.06;;;26.80;100.00
44765;BME280;30484;52.382;5.260;2023-09-18T01:21:21;100560.31;;;26.89;100.00
44765;BME280;30484;52.382;5.260;2023-09-18T01:23:51;100562.47;;;26.93;100.00
44765;BME280;30484;52.382;5.260;2023-09-18T01:26:19;100568.78;;;26.19;100.00
44765;BME280;30484;52.382;5.260;2023-09-18T01:28:47;100562.38;;;26.27;100.00
44765;BME280;30484;52.382;5.260;2023-09-18T01:31:16;100546.72;;;26.65;100.00
44765;BME280;30484;52.382;5.260;2023-09-18T01:33:45;100535.00;;;26.86;100.00
44765;BME280;30484;52.382;5.260;2023-09-18T01:36:16;100539.59;;;26.86;100.00
44765;BME280;30484;52.382;5.260;2023-09-18T01:38:47;100536.13;;;26.92;100.00
44765;BME280;30484;52.382;5.260;2023-09-18T01:41:18;100525.00;;;27.00;100.00
44765;BME280;30484;52.382;5.260;2023-09-18T01:43:47;100526.63;;;26.95;100.00
44765;BME280;30484;52.382;5.260;2023-09-18T01:46:15;100521.78;;;27.12;100.00
44765;BME280;30484;52.382;5.260;2023-09-18T01:48:46;100512.63;;;26.38;100.00
44765;BME280;30484;52.382;5.260;2023-09-18T01:51:15;100514.47;;;27.19;100.00
44765;BME280;30484;52.382;5.260;2023-09-18T01:53:43;100515.28;;;27.34;100.00
44765;BME280;30484;52.382;5.260;2023-09-18T01:56:12;100508.97;;;27.19;100.00
44765;BME280;30484;52.382;5.260;2023-09-18T01:58:41;100500.22;;;27.30;100.00
44765;BME280;30484;52.382;5.260;2023-09-18T02:01:10;100512.50;;;27.13;100.00
44765;BME280;30484;52.382;5.260;2023-09-18T02:03:39;100511.50;;;26.99;100.00
44765;BME280;30484;52.382;5.260;2023-09-18T02:06:28;100506.63;;;26.79;100.00
44765;BME280;30484;52.382;5.260;2023-09-18T02:08:57;100507.25;;;26.96;100.00
44765;BME280;30484;52.382;5.260;2023-09-18T02:11:26;100508.06;;;27.12;100.00
44765;BME280;30484;52.382;5.260;2023-09-18T02:13:56;100505.56;;;27.53;100.00
44765;BME280;30484;52.382;5.260;2023-09-18T02:16:24;100508.84;;;27.92;100.00
44765;BME280;30484;52.382;5.260;2023-09-18T02:18:55;100498.28;;;27.67;100.00
44765;BME280;30484;52.382;5.260;2023-09-18T02:21:23;100496.97;;;27.63;100.00
44765;BME280;30484;52.382;5.260;2023-09-18T02:23:53;100500.78;;;27.62;100.00
44765;BME280;30484;52.382;5.260;2023-09-18T02:26:24;100498.00;;;27.84;100.00
44765;BME280;30484;52.382;5.260;2023-09-18T02:28:52;100499.88;;;27.83;100.00
44765;BME280;30484;52.382;5.260;2023-09-18T02:31:23;100503.66;;;27.54;100.00
44765;BME280;30484;52.382;5.260;2023-09-18T02:33:51;100506.28;;;27.62;100.00
44765;BME280;30484;52.382;5.260;2023-09-18T02:36:19;100498.31;;;27.46;100.00
44765;BME280;30484;52.382;5.260;2023-09-18T02:38:48;100502.97;;;27.09;100.00
44765;BME280;30484;52.382;5.260;2023-09-18T02:41:17;100493.91;;;27.08;100.00
44765;BME280;30484;52.382;5.260;2023-09-18T02:43:45;100496.47;;;27.53;100.00
44765;BME280;30484;52.382;5.260;2023-09-18T02:46:13;100480.63;;;27.12;100.00
44765;BME280;30484;52.382;5.260;2023-09-18T02:48:43;100468.63;;;27.56;100.00
44765;BME280;30484;52.382;5.260;2023-09-18T02:51:11;100458.22;;;27.73;100.00
44765;BME280;30484;52.382;5.260;2023-09-18T02:53:40;100465.69;;;27.58;100.00
44765;BME280;30484;52.382;5.260;2023-09-18T02:56:08;100454.91;;;27.84;100.00
44765;BME280;30484;52.382;5.260;2023-09-18T02:58:37;100447.16;;;27.95;100.00
44765;BME280;30484;52.382;5.260;2023-09-18T03:01:07;100445.28;;;27.38;100.00
44765;BME280;30484;52.382;5.260;2023-09-18T03:03:36;100434.31;;;27.17;100.00
44765;BME280;30484;52.382;5.260;2023-09-18T03:06:06;100434.31;;;26.44;100.00
44765;BME280;30484;52.382;5.260;2023-09-18T03:08:34;100434.56;;;27.44;100.00
44765;BME280;30484;52.382;5.260;2023-09-18T03:11:03;100423.34;;;26.95;100.00
44765;BME280;30484;52.382;5.260;2023-09-18T03:13:42;100420.88;;;27.50;100.00
44765;BME280;30484;52.382;5.260;2023-09-18T03:16:11;100405.94;;;27.53;100.00
44765;BME280;30484;52.382;5.260;2023-09-18T03:18:39;100400.88;;;27.85;100.00
44765;BME280;30484;52.382;5.260;2023-09-18T03:21:09;100392.63;;;27.50;100.00
44765;BME280;30484;52.382;5.260;2023-09-18T03:23:38;100380.19;;;27.54;100.00
44765;BME280;30484;52.382;5.260;2023-09-18T03:26:06;100373.09;;;26.51;100.00
44765;BME280;30484;52.382;5.260;2023-09-18T03:28:34;100365.38;;;26.98;100.00
44765;BME280;30484;52.382;5.260;2023-09-18T03:31:03;100353.91;;;27.73;100.00
44765;BME280;30484;52.382;5.260;2023-09-18T03:33:32;100358.31;;;27.61;100.00
44765;BME280;30484;52.382;5.260;2023-09-18T03:36:01;100358.81;;;27.21;100.00
44765;BME280;30484;52.382;5.260;2023-09-18T03:38:33;100364.13;;;27.01;100.00
44765;BME280;30484;52.382;5.260;2023-09-18T03:41:02;100358.78;;;27.71;100.00
44765;BME280;30484;52.382;5.260;2023-09-18T03:43:31;100362.28;;;27.58;100.00
44765;BME280;30484;52.382;5.260;2023-09-18T03:46:06;100357.59;;;27.52;100.00
44765;BME280;30484;52.382;5.260;2023-09-18T03:48:35;100348.78;;;27.07;100.00
44765;BME280;30484;52.382;5.260;2023-09-18T03:51:05;100360.69;;;27.77;100.00
44765;BME280;30484;52.382;5.260;2023-09-18T03:53:35;100360.81;;;27.34;100.00
44765;BME280;30484;52.382;5.260;2023-09-18T03:56:04;100356.34;;;27.89;100.00
44765;BME280;30484;52.382;5.260;2023-09-18T03:58:32;100355.63;;;27.74;100.00
44765;BME280;30484;52.382;5.260;2023-09-18T04:01:02;100361.28;;;27.66;100.00
44765;BME280;30484;52.382;5.260;2023-09-18T04:03:31;100353.78;;;28.30;100.00
44765;BME280;30484;52.382;5.260;2023-09-18T04:05:59;100348.63;;;27.71;100.00
44765;BME280;30484;52.382;5.260;2023-09-18T04:08:29;100339.09;;;27.67;100.00
44765;BME280;30484;52.382;5.260;2023-09-18T04:11:30;100333.34;;;27.90;100.00
44765;BME280;30484;52.382;5.260;2023-09-18T04:14:00;100316.06;;;27.62;100.00
44765;BME280;30484;52.382;5.260;2023-09-18T04:20:08;100319.84;;;26.39;100.00
44765;BME280;30484;52.382;5.260;2023-09-18T04:22:44;100320.97;;;27.10;100.00
44765;BME280;30484;52.382;5.260;2023-09-18T04:25:17;100333.16;;;27.57;100.00
44765;BME280;30484;52.382;5.260;2023-09-18T04:27:48;100334.03;;;26.43;100.00
44765;BME280;30484;52.382;5.260;2023-09-18T04:30:19;100334.41;;;27.04;100.00
44765;BME280;30484;52.382;5.260;2023-09-18T04:32:49;100343.97;;;26.87;100.00
44765;BME280;30484;52.382;5.260;2023-09-18T04:35:19;100370.53;;;26.50;100.00
44765;BME280;30484;52.382;5.260;2023-09-18T04:37:47;100363.03;;;26.95;100.00
44765;BME280;30484;52.382;5.260;2023-09-18T04:40:15;100341.31;;;26.35;100.00
44765;BME280;30484;52.382;5.260;2023-09-18T04:42:44;100323.84;;;27.01;100.00
44765;BME280;30484;52.382;5.260;2023-09-18T04:45:51;100294.84;;;27.77;100.00
44765;BME280;30484;52.382;5.260;2023-09-18T04:48:21;100306.72;;;26.93;100.00
44765;BME280;30484;52.382;5.260;2023-09-18T04:50:50;100305.03;;;26.70;100.00
44765;BME280;30484;52.382;5.260;2023-09-18T04:53:18;100302.38;;;26.18;100.00
44765;BME280;30484;52.382;5.260;2023-09-18T04:55:49;100293.34;;;27.11;100.00
44765;BME280;30484;52.382;5.260;2023-09-18T04:58:18;100302.66;;;26.89;100.00
44765;BME280;30484;52.382;5.260;2023-09-18T05:00:46;100303.63;;;26.59;100.00
44765;BME280;30484;52.382;5.260;2023-09-18T05:03:16;100291.81;;;26.37;100.00
44765;BME280;30484;52.382;5.260;2023-09-18T05:05:44;100286.28;;;26.95;100.00
44765;BME280;30484;52.382;5.260;2023-09-18T05:08:13;100272.38;;;26.53;100.00
44765;BME280;30484;52.382;5.260;2023-09-18T05:10:41;100266.69;;;27.33;100.00
44765;BME280;30484;52.382;5.260;2023-09-18T05:13:12;100291.00;;;27.71;100.00
44765;BME280;30484;52.382;5.260;2023-09-18T05:15:40;100281.91;;;27.01;100.00
44765;BME280;30484;52.382;5.260;2023-09-18T05:18:08;100280.69;;;27.73;100.00
44765;BME280;30484;52.382;5.260;2023-09-18T05:20:39;100258.44;;;28.03;100.00
44765;BME280;30484;52.382;5.260;2023-09-18T05:23:15;100261.00;;;28.05;100.00
44765;BME280;30484;52.382;5.260;2023-09-18T05:25:48;100264.13;;;28.02;100.00
44765;BME280;30484;52.382;5.260;2023-09-18T05:28:16;100261.44;;;28.15;100.00
44765;BME280;30484;52.382;5.260;2023-09-18T05:30:44;100251.94;;;28.24;100.00
44765;BME280;30484;52.382;5.260;2023-09-18T05:33:17;100264.81;;;28.24;100.00
44765;BME280;30484;52.382;5.260;2023-09-18T05:35:48;100276.00;;;28.16;100.00
44765;BME280;30484;52.382;5.260;2023-09-18T05:38:17;100293.34;;;27.75;100.00
44765;BME280;30484;52.382;5.260;2023-09-18T05:40:45;100308.47;;;27.99;100.00
44765;BME280;30484;52.382;5.260;2023-09-18T05:43:14;100317.16;;;27.67;100.00
44765;BME280;30484;52.382;5.260;2023-09-18T05:45:43;100318.34;;;27.51;100.00
44765;BME280;30484;52.382;5.260;2023-09-18T05:48:12;100324.28;;;26.77;100.00
44765;BME280;30484;52.382;5.260;2023-09-18T05:50:40;100317.44;;;27.44;100.00
44765;BME280;30484;52.382;5.260;2023-09-18T05:53:10;100315.41;;;26.75;100.00
44765;BME280;30484;52.382;5.260;2023-09-18T05:55:39;100327.19;;;26.17;100.00
44765;BME280;30484;52.382;5.260;2023-09-18T05:58:07;100330.88;;;26.46;100.00
44765;BME280;30484;52.382;5.260;2023-09-18T06:00:35;100329.97;;;26.60;100.00
44765;BME280;30484;52.382;5.260;2023-09-18T06:03:04;100336.84;;;26.49;100.00
44765;BME280;30484;52.382;5.260;2023-09-18T06:05:34;100324.28;;;27.33;100.00
44765;BME280;30484;52.382;5.260;2023-09-18T06:08:14;100314.06;;;27.42;100.00
44765;BME280;30484;52.382;5.260;2023-09-18T06:10:43;100332.78;;;27.67;100.00
44765;BME280;30484;52.382;5.260;2023-09-18T06:13:11;100317.03;;;27.89;100.00
44765;BME280;30484;52.382;5.260;2023-09-18T06:15:39;100314.53;;;27.94;100.00
44765;BME280;30484;52.382;5.260;2023-09-18T06:18:08;100315.97;;;27.83;100.00
44765;BME280;30484;52.382;5.260;2023-09-18T06:20:36;100312.50;;;27.61;100.00
44765;BME280;30484;52.382;5.260;2023-09-18T06:23:06;100322.38;;;27.97;100.00
44765;BME280;30484;52.382;5.260;2023-09-18T06:25:35;100329.41;;;28.06;100.00
44765;BME280;30484;52.382;5.260;2023-09-18T06:28:05;100332.78;;;27.10;100.00
44765;BME280;30484;52.382;5.260;2023-09-18T06:30:33;100320.03;;;27.52;100.00
44765;BME280;30484;52.382;5.260;2023-09-18T06:33:04;100320.47;;;27.56;100.00
44765;BME280;30484;52.382;5.260;2023-09-18T06:35:32;100323.56;;;27.18;100.00
44765;BME280;30484;52.382;5.260;2023-09-18T06:38:01;100306.31;;;27.94;100.00
44765;BME280;30484;52.382;5.260;2023-09-18T06:40:29;100305.22;;;27.88;100.00
44765;BME280;30484;52.382;5.260;2023-09-18T06:43:03;100303.53;;;27.81;100.00
44765;BME280;30484;52.382;5.260;2023-09-18T06:45:31;100292.16;;;27.97;100.00
44765;BME280;30484;52.382;5.260;2023-09-18T06:48:00;100292.75;;;27.86;100.00
44765;BME280;30484;52.382;5.260;2023-09-18T06:50:28;100295.00;;;28.11;100.00
44765;BME280;30484;52.382;5.260;2023-09-18T06:52:57;100290.97;;;28.06;100.00
44765;BME280;30484;52.382;5.260;2023-09-18T06:55:26;100287.19;;;28.14;100.00
44765;BME280;30484;52.382;5.260;2023-09-18T06:57:54;100295.06;;;27.82;100.00
44765;BME280;30484;52.382;5.260;2023-09-18T07:00:23;100284.31;;;27.81;100.00
44765;BME280;30484;52.382;5.260;2023-09-18T07:02:52;100292.72;;;27.72;100.00
44765;BME280;30484;52.382;5.260;2023-09-18T07:05:20;100304.72;;;27.71;100.00
44765;BME280;30484;52.382;5.260;2023-09-18T07:07:49;100302.03;;;26.86;100.00
44765;BME280;30484;52.382;5.260;2023-09-18T07:10:17;100300.56;;;27.19;100.00
44765;BME280;30484;52.382;5.260;2023-09-18T07:12:46;100300.81;;;26.96;100.00
44765;BME280;30484;52.382;5.260;2023-09-18T07:15:14;100308.09;;;27.67;100.00
44765;BME280;30484;52.382;5.260;2023-09-18T07:17:45;100302.97;;;27.00;100.00
44765;BME280;30484;52.382;5.260;2023-09-18T07:20:15;100299.34;;;27.50;100.00
44765;BME280;30484;52.382;5.260;2023-09-18T07:22:47;100301.00;;;27.44;100.00
44765;BME280;30484;52.382;5.260;2023-09-18T07:25:15;100307.56;;;26.72;100.00
44765;BME280;30484;52.382;5.260;2023-09-18T07:27:44;100316.69;;;27.57;100.00
44765;BME280;30484;52.382;5.260;2023-09-18T07:30:14;100311.81;;;26.16;100.00
44765;BME280;30484;52.382;5.260;2023-09-18T07:32:47;100307.69;;;27.13;100.00
44765;BME280;30484;52.382;5.260;2023-09-18T07:35:16;100299.19;;;26.37;100.00
44765;BME280;30484;52.382;5.260;2023-09-18T07:37:44;100294.13;;;27.33;100.00
44765;BME280;30484;52.382;5.260;2023-09-18T07:40:14;100287.75;;;27.26;100.00
44765;BME280;30484;52.382;5.260;2023-09-18T07:42:44;100294.25;;;26.25;100.00
44765;BME280;30484;52.382;5.260;2023-09-18T07:45:12;100284.03;;;27.06;100.00
44765;BME280;30484;52.382;5.260;2023-09-18T07:47:41;100277.16;;;27.93;100.00
44765;BME280;30484;52.382;5.260;2023-09-18T07:50:11;100293.91;;;27.98;100.00
44765;BME280;30484;52.382;5.260;2023-09-18T07:52:39;100288.47;;;27.07;100.00
44765;BME280;30484;52.382;5.260;2023-09-18T07:55:08;100305.66;;;26.50;100.00
44765;BME280;30484;52.382;5.260;2023-09-18T07:57:37;100296.84;;;26.98;100.00
44765;BME280;30484;52.382;5.260;2023-09-18T08:00:07;100293.38;;;27.40;100.00
44765;BME280;30484;52.382;5.260;2023-09-18T08:02:39;100308.06;;;26.60;100.00
44765;BME280;30484;52.382;5.260;2023-09-18T08:05:07;100324.41;;;27.18;100.00
44765;BME280;30484;52.382;5.260;2023-09-18T08:07:37;100331.13;;;27.16;100.00
44765;BME280;30484;52.382;5.260;2023-09-18T08:10:09;100327.63;;;27.00;100.00
44765;BME280;30484;52.382;5.260;2023-09-18T08:12:41;100328.25;;;27.24;100.00
44765;BME280;30484;52.382;5.260;2023-09-18T08:15:10;100332.34;;;27.07;100.00
44765;BME280;30484;52.382;5.260;2023-09-18T08:17:38;100342.38;;;27.21;100.00
44765;BME280;30484;52.382;5.260;2023-09-18T08:20:09;100338.47;;;27.65;100.00
44765;BME280;30484;52.382;5.260;2023-09-18T08:22:42;100337.50;;;26.95;100.00
44765;BME280;30484;52.382;5.260;2023-09-18T08:25:15;100340.94;;;27.25;100.00
44765;BME280;30484;52.382;5.260;2023-09-18T08:27:44;100334.56;;;26.75;100.00
44765;BME280;30484;52.382;5.260;2023-09-18T08:30:13;100339.41;;;26.94;100.00
44765;BME280;30484;52.382;5.260;2023-09-18T08:32:42;100334.63;;;27.31;100.00
44765;BME280;30484;52.382;5.260;2023-09-18T08:35:11;100343.31;;;27.63;100.00
44765;BME280;30484;52.382;5.260;2023-09-18T08:37:42;100348.03;;;26.69;100.00
44765;BME280;30484;52.382;5.260;2023-09-18T08:40:12;100344.66;;;27.74;100.00
44765;BME280;30484;52.382;5.260;2023-09-18T08:42:46;100351.53;;;27.63;100.00
44765;BME280;30484;52.382;5.260;2023-09-18T08:45:22;100350.13;;;26.31;100.00
44765;BME280;30484;52.382;5.260;2023-09-18T08:47:51;100346.75;;;27.15;100.00
44765;BME280;30484;52.382;5.260;2023-09-18T08:50:22;100341.50;;;27.77;100.00
44765;BME280;30484;52.382;5.260;2023-09-18T08:52:54;100340.75;;;27.33;100.00
44765;BME280;30484;52.382;5.260;2023-09-18T08:55:29;100351.22;;;28.21;100.00
44765;BME280;30484;52.382;5.260;2023-09-18T08:57:59;100347.44;;;28.22;100.00
44765;BME280;30484;52.382;5.260;2023-09-18T09:00:28;100349.94;;;27.76;100.00
44765;BME280;30484;52.382;5.260;2023-09-18T09:02:57;100363.66;;;27.76;100.00
44765;BME280;30484;52.382;5.260;2023-09-18T09:05:26;100355.97;;;28.48;100.00
44765;BME280;30484;52.382;5.260;2023-09-18T09:07:56;100357.28;;;27.68;100.00
44765;BME280;30484;52.382;5.260;2023-09-18T09:10:24;100352.16;;;27.59;100.00
44765;BME280;30484;52.382;5.260;2023-09-18T09:12:56;100363.88;;;28.16;100.00
44765;BME280;30484;52.382;5.260;2023-09-18T09:15:28;100361.31;;;28.07;100.00
44765;BME280;30484;52.382;5.260;2023-09-18T09:18:06;100376.97;;;28.62;100.00
44765;BME280;30484;52.382;5.260;2023-09-18T09:20:35;100395.13;;;28.63;100.00
44765;BME280;30484;52.382;5.260;2023-09-18T09:23:09;100389.13;;;27.98;100.00
44765;BME280;30484;52.382;5.260;2023-09-18T09:25:38;100380.88;;;28.39;100.00
44765;BME280;30484;52.382;5.260;2023-09-18T09:28:12;100391.81;;;29.01;100.00
44765;BME280;30484;52.382;5.260;2023-09-18T09:30:41;100381.34;;;28.56;100.00
44765;BME280;30484;52.382;5.260;2023-09-18T09:33:12;100386.13;;;27.93;100.00
44765;BME280;30484;52.382;5.260;2023-09-18T09:35:41;100384.38;;;28.68;100.00
44765;BME280;30484;52.382;5.260;2023-09-18T09:38:12;100381.19;;;28.10;100.00
44765;BME280;30484;52.382;5.260;2023-09-18T09:40:45;100392.28;;;28.43;100.00
44765;BME280;30484;52.382;5.260;2023-09-18T09:43:13;100399.38;;;27.82;100.00
44765;BME280;30484;52.382;5.260;2023-09-18T09:45:42;100397.31;;;28.88;100.00
44765;BME280;30484;52.382;5.260;2023-09-18T09:48:14;100408.66;;;28.10;100.00
44765;BME280;30484;52.382;5.260;2023-09-18T09:50:46;100408.25;;;27.49;100.00
44765;BME280;30484;52.382;5.260;2023-09-18T09:53:17;100412.13;;;28.93;100.00
44765;BME280;30484;52.382;5.260;2023-09-18T09:55:54;100412.19;;;28.45;100.00
44765;BME280;30484;52.382;5.260;2023-09-18T09:58:27;100411.34;;;27.75;100.00
44765;BME280;30484;52.382;5.260;2023-09-18T10:01:03;100423.38;;;28.50;100.00
44765;BME280;30484;52.382;5.260;2023-09-18T10:03:38;100425.22;;;28.78;100.00
44765;BME280;30484;52.382;5.260;2023-09-18T10:06:09;100423.47;;;28.64;100.00
44765;BME280;30484;52.382;5.260;2023-09-18T10:08:43;100426.28;;;28.97;100.00
44765;BME280;30484;52.382;5.260;2023-09-18T10:11:13;100410.84;;;29.03;100.00
44765;BME280;30484;52.382;5.260;2023-09-18T10:13:50;100422.06;;;29.01;100.00
44765;BME280;30484;52.382;5.260;2023-09-18T10:16:23;100425.56;;;28.62;100.00
44765;BME280;30484;52.382;5.260;2023-09-18T10:19:05;100419.13;;;28.96;100.00
44765;BME280;30484;52.382;5.260;2023-09-18T10:21:41;100413.88;;;28.53;100.00
44765;BME280;30484;52.382;5.260;2023-09-18T10:24:22;100414.91;;;29.14;100.00
44765;BME280;30484;52.382;5.260;2023-09-18T10:26:58;100415.13;;;29.72;100.00
44765;BME280;30484;52.382;5.260;2023-09-18T10:29:32;100407.66;;;30.58;100.00
44765;BME280;30484;52.382;5.260;2023-09-18T10:32:04;100407.75;;;29.26;100.00
44765;BME280;30484;52.382;5.260;2023-09-18T10:34:38;100414.09;;;29.47;100.00
44765;BME280;30484;52.382;5.260;2023-09-18T10:37:08;100407.25;;;29.83;100.00
44765;BME280;30484;52.382;5.260;2023-09-18T10:39:39;100400.91;;;29.75;100.00
44765;BME280;30484;52.382;5.260;2023-09-18T10:42:13;100417.84;;;30.06;100.00
44765;BME280;30484;52.382;5.260;2023-09-18T10:44:48;100417.91;;;29.32;100.00
44765;BME280;30484;52.382;5.260;2023-09-18T10:47:17;100420.78;;;30.04;100.00
44765;BME280;30484;52.382;5.260;2023-09-18T10:49:47;100414.69;;;29.75;100.00
44765;BME280;30484;52.382;5.260;2023-09-18T10:52:17;100414.97;;;30.33;100.00
44765;BME280;30484;52.382;5.260;2023-09-18T10:54:47;100416.16;;;29.71;100.00
44765;BME280;30484;52.382;5.260;2023-09-18T10:57:23;100413.56;;;28.69;100.00
44765;BME280;30484;52.382;5.260;2023-09-18T10:59:54;100419.16;;;29.30;100.00
44765;BME280;30484;52.382;5.260;2023-09-18T11:02:23;100410.91;;;29.56;100.00
44765;BME280;30484;52.382;5.260;2023-09-18T11:04:53;100420.84;;;29.24;100.00
44765;BME280;30484;52.382;5.260;2023-09-18T11:07:23;100413.22;;;29.53;100.00
44765;BME280;30484;52.382;5.260;2023-09-18T11:09:53;100403.50;;;29.30;100.00
44765;BME280;30484;52.382;5.260;2023-09-18T11:12:43;100416.97;;;30.05;100.00
44765;BME280;30484;52.382;5.260;2023-09-18T11:15:26;100420.53;;;30.19;100.00
44765;BME280;30484;52.382;5.260;2023-09-18T11:17:59;100415.25;;;30.24;100.00
44765;BME280;30484;52.382;5.260;2023-09-18T11:20:34;100417.84;;;29.99;100.00
44765;BME280;30484;52.382;5.260;2023-09-18T11:23:16;100407.47;;;30.60;100.00
44765;BME280;30484;52.382;5.260;2023-09-18T11:25:46;100406.56;;;30.66;100.00
44765;BME280;30484;52.382;5.260;2023-09-18T11:28:23;100413.63;;;29.76;100.00
44765;BME280;30484;52.382;5.260;2023-09-18T11:30:59;100408.53;;;30.59;100.00
44765;BME280;30484;52.382;5.260;2023-09-18T11:33:32;100407.47;;;30.60;100.00
44765;BME280;30484;52.382;5.260;2023-09-18T11:36:06;100400.06;;;29.95;100.00
44765;BME280;30484;52.382;5.260;2023-09-18T11:38:47;100405.63;;;30.86;100.00
44765;BME280;30484;52.382;5.260;2023-09-18T11:41:26;100419.69;;;30.71;100.00
44765;BME280;30484;52.382;5.260;2023-09-18T11:44:32;100403.59;;;31.06;100.00
44765;BME280;30484;52.382;5.260;2023-09-18T11:47:08;100405.50;;;30.15;100.00
44765;BME280;30484;52.382;5.260;2023-09-18T11:49:41;100403.38;;;30.69;100.00
44765;BME280;30484;52.382;5.260;2023-09-18T11:52:14;100395.78;;;30.96;100.00
44765;BME280;30484;52.382;5.260;2023-09-18T11:54:47;100408.75;;;30.57;100.00
44765;BME280;30484;52.382;5.260;2023-09-18T11:57:19;100414.31;;;31.21;100.00
44765;BME280;30484;52.382;5.260;2023-09-18T11:59:48;100417.69;;;30.39;100.00
44765;BME280;30484;52.382;5.260;2023-09-18T12:02:31;100416.97;;;30.64;100.00
44765;BME280;30484;52.382;5.260;2023-09-18T12:05:10;100407.66;;;30.97;100.00
44765;BME280;30484;52.382;5.260;2023-09-18T12:07:40;100421.38;;;30.78;100.00
44765;BME280;30484;52.382;5.260;2023-09-18T12:10:12;100398.94;;;31.00;100.00
44765;BME280;30484;52.382;5.260;2023-09-18T12:12:42;100398.22;;;30.79;100.00
44765;BME280;30484;52.382;5.260;2023-09-18T12:15:12;100408.50;;;31.29;100.00
44765;BME280;30484;52.382;5.260;2023-09-18T12:17:41;100398.56;;;31.91;100.00
44765;BME280;30484;52.382;5.260;2023-09-18T12:20:15;100400.00;;;31.06;100.00
44765;BME280;30484;52.382;5.260;2023-09-18T12:26:54;100391.31;;;31.53;100.00
44765;BME280;30484;52.382;5.260;2023-09-18T12:29:24;100404.91;;;30.97;100.00
44765;BME280;30484;52.382;5.260;2023-09-18T12:31:59;100407.66;;;30.97;100.00
44765;BME280;30484;52.382;5.260;2023-09-18T12:34:33;100402.03;;;31.17;100.00
44765;BME280;30484;52.382;5.260;2023-09-18T12:37:01;100409.00;;;30.88;100.00
44765;BME280;30484;52.382;5.260;2023-09-18T12:39:32;100393.72;;;30.53;100.00
44765;BME280;30484;52.382;5.260;2023-09-18T12:42:10;100395.69;;;32.04;100.00
44765;BME280;30484;52.382;5.260;2023-09-18T12:44:40;100395.31;;;31.06;100.00
44765;BME280;30484;52.382;5.260;2023-09-18T12:47:08;100394.91;;;30.19;100.00
44765;BME280;30484;52.382;5.260;2023-09-18T12:49:37;100386.72;;;30.51;100.00
44765;BME280;30484;52.382;5.260;2023-09-18T12:52:07;100385.53;;;30.26;100.00
44765;BME280;30484;52.382;5.260;2023-09-18T12:54:39;100381.31;;;30.24;100.00
44765;BME280;30484;52.382;5.260;2023-09-18T12:57:10;100374.59;;;30.90;100.00
44765;BME280;30484;52.382;5.260;2023-09-18T12:59:40;100382.72;;;30.46;100.00
44765;BME280;30484;52.382;5.260;2023-09-18T13:02:13;100361.38;;;30.99;100.00
44765;BME280;30484;52.382;5.260;2023-09-18T13:04:51;100361.75;;;31.09;100.00
44765;BME280;30484;52.382;5.260;2023-09-18T13:07:20;100353.66;;;30.51;100.00